Terminal Aerodrome Forecast
Issued by NWS Lake Charles, LA

Home | Current Version | Previous Version | Text Only | Print | Product List | Glossary On
Versions: 1 2 3 4 5 6 7 8 9 10 11 12 13 14 15 16 17 18 19 20
000
FTUS44 KLCH 271100
TAFARA
TAF
KARA 271130Z 2712/2812 05013KT P6SM BKN018
      TEMPO 2712/2715 SCT018
     FM271500 05013KT P6SM SCT025
     FM271900 04010KT P6SM SCT035 SCT120
     FM280000 02009KT P6SM BKN120=

USA.gov is the U.S. government's official web portal to all federal, state and local government web resources and services.